気象予報士の航空気象 霧と雨と桜島

*All archives   *Admin

2010.06.23 (Wed)

霧と雨と桜島

RJFK 231000Z 16003KT 130V210 9999 R34/P1800N BCFG FEW001 SCT005 BKN/// 22/21 Q1009
RMK 1ST001 3ST005 A2980 1000SE FG NE-SE VOLCANIC ASH CLOUD S


関東はお昼ごろ、かなりの雨が降りました。


大雨が続いている鹿児島では、火山活動も活発で、注意が必要です。


少し前のFBJPにおいて、新燃岳の火山情報もでていました。


 
ブログランキングに参加しています。
にほんブログ村 環境ブログ 天気・気象学へ
にほんブログ村
応援クリックをおねがします。


以下、アフィリエイトサイトです。




スポンサーサイト
22:36  |  気象・天気  |  TB(0)  |  CM(0)  |  EDIT  |  Top↑

コメントを投稿する


 管理者だけに表示  (非公開コメント投稿可能)

▲PageTop

この記事のトラックバックURL

→http://weathereucalyptus.blog115.fc2.com/tb.php/525-5c016d7b
この記事にトラックバックする(FC2ブログユーザー)

この記事へのトラックバック

▲PageTop

 | BLOGTOP |